sensor_id;sensor_type;location;lat;lon;timestamp;pressure;altitude;pressure_sealevel;temperature;humidity
74161;BME280;62512;-46.434;168.382;2022-08-02T00:00:20;100109;;;unknown;51.34
74161;BME280;62512;-46.434;168.382;2022-08-02T00:01:20;100109;;;unknown;50.53
74161;BME280;62512;-46.434;168.382;2022-08-02T00:02:20;100107;;;unknown;50.07
74161;BME280;62512;-46.434;168.382;2022-08-02T00:03:20;100106;;;unknown;50.38
74161;BME280;62512;-46.434;168.382;2022-08-02T00:04:20;100101;;;unknown;50.35
74161;BME280;62512;-46.434;168.382;2022-08-02T00:05:20;100096;;;unknown;50.10
74161;BME280;62512;-46.434;168.382;2022-08-02T00:06:20;100098;;;unknown;50.00
74161;BME280;62512;-46.434;168.382;2022-08-02T00:09:20;100088;;;unknown;49.13
74161;BME280;62512;-46.434;168.382;2022-08-02T00:10:20;100090;;;unknown;49.20
74161;BME280;62512;-46.434;168.382;2022-08-02T00:11:20;100088;;;unknown;48.81
74161;BME280;62512;-46.434;168.382;2022-08-02T00:12:21;100088;;;unknown;48.81
74161;BME280;62512;-46.434;168.382;2022-08-02T00:13:20;100076;;;unknown;48.72
74161;BME280;62512;-46.434;168.382;2022-08-02T00:14:21;100077;;;unknown;48.77
74161;BME280;62512;-46.434;168.382;2022-08-02T00:15:20;100070;;;unknown;48.79
74161;BME280;62512;-46.434;168.382;2022-08-02T00:16:20;100080;;;unknown;48.66
74161;BME280;62512;-46.434;168.382;2022-08-02T00:17:20;100080;;;unknown;48.66
74161;BME280;62512;-46.434;168.382;2022-08-02T00:19:20;100076;;;unknown;48.77
74161;BME280;62512;-46.434;168.382;2022-08-02T00:20:20;100083;;;unknown;48.72
74161;BME280;62512;-46.434;168.382;2022-08-02T00:21:20;100070;;;unknown;48.75
74161;BME280;62512;-46.434;168.382;2022-08-02T00:22:20;100080;;;unknown;48.29
74161;BME280;62512;-46.434;168.382;2022-08-02T00:23:20;100086;;;unknown;48.03
74161;BME280;62512;-46.434;168.382;2022-08-02T00:24:20;100083;;;unknown;47.88
74161;BME280;62512;-46.434;168.382;2022-08-02T00:25:20;100083;;;unknown;47.68
74161;BME280;62512;-46.434;168.382;2022-08-02T00:27:20;100074;;;unknown;46.81
74161;BME280;62512;-46.434;168.382;2022-08-02T00:28:20;100067;;;unknown;46.34
74161;BME280;62512;-46.434;168.382;2022-08-02T00:29:20;100077;;;unknown;46.71
74161;BME280;62512;-46.434;168.382;2022-08-02T00:30:20;100063;;;unknown;46.50
74161;BME280;62512;-46.434;168.382;2022-08-02T00:31:20;100048;;;unknown;46.48
74161;BME280;62512;-46.434;168.382;2022-08-02T00:32:21;100074;;;unknown;46.40
74161;BME280;62512;-46.434;168.382;2022-08-02T00:33:20;100071;;;unknown;46.38
74161;BME280;62512;-46.434;168.382;2022-08-02T00:34:20;100067;;;unknown;46.61
74161;BME280;62512;-46.434;168.382;2022-08-02T00:35:20;100073;;;unknown;46.78
74161;BME280;62512;-46.434;168.382;2022-08-02T00:36:20;100068;;;unknown;46.69
74161;BME280;62512;-46.434;168.382;2022-08-02T00:37:20;100067;;;unknown;46.65
74161;BME280;62512;-46.434;168.382;2022-08-02T00:39:20;100055;;;unknown;46.29
74161;BME280;62512;-46.434;168.382;2022-08-02T00:40:21;100064;;;unknown;46.32
74161;BME280;62512;-46.434;168.382;2022-08-02T00:41:21;100063;;;unknown;46.35
74161;BME280;62512;-46.434;168.382;2022-08-02T00:42:20;100064;;;unknown;46.54
74161;BME280;62512;-46.434;168.382;2022-08-02T00:43:20;100063;;;unknown;46.53
74161;BME280;62512;-46.434;168.382;2022-08-02T00:45:20;100070;;;unknown;46.50
74161;BME280;62512;-46.434;168.382;2022-08-02T00:46:20;100056;;;unknown;46.30
74161;BME280;62512;-46.434;168.382;2022-08-02T00:47:20;100059;;;unknown;46.14
74161;BME280;62512;-46.434;168.382;2022-08-02T00:48:20;100060;;;unknown;46.42
74161;BME280;62512;-46.434;168.382;2022-08-02T00:49:20;100052;;;unknown;46.73
74161;BME280;62512;-46.434;168.382;2022-08-02T00:50:20;100052;;;unknown;46.73
74161;BME280;62512;-46.434;168.382;2022-08-02T00:51:20;100051;;;unknown;46.65
74161;BME280;62512;-46.434;168.382;2022-08-02T00:52:21;100049;;;unknown;46.56
74161;BME280;62512;-46.434;168.382;2022-08-02T00:53:20;100052;;;unknown;46.59
74161;BME280;62512;-46.434;168.382;2022-08-02T00:54:20;100048;;;unknown;46.59
74161;BME280;62512;-46.434;168.382;2022-08-02T00:57:20;100046;;;unknown;46.30
74161;BME280;62512;-46.434;168.382;2022-08-02T00:58:20;100046;;;unknown;46.24
74161;BME280;62512;-46.434;168.382;2022-08-02T00:59:20;100035;;;unknown;45.95
74161;BME280;62512;-46.434;168.382;2022-08-02T01:03:20;100024;;;unknown;45.40
74161;BME280;62512;-46.434;168.382;2022-08-02T01:04:20;100021;;;unknown;45.56
74161;BME280;62512;-46.434;168.382;2022-08-02T01:06:20;100022;;;unknown;45.46
74161;BME280;62512;-46.434;168.382;2022-08-02T01:07:20;100019;;;unknown;45.45
74161;BME280;62512;-46.434;168.382;2022-08-02T01:08:20;100022;;;unknown;45.21
74161;BME280;62512;-46.434;168.382;2022-08-02T01:10:20;100020;;;unknown;45.12
74161;BME280;62512;-46.434;168.382;2022-08-02T01:11:20;100009;;;unknown;45.11
74161;BME280;62512;-46.434;168.382;2022-08-02T01:13:20;100014;;;unknown;45.25
74161;BME280;62512;-46.434;168.382;2022-08-02T01:14:20;100006;;;unknown;45.42
74161;BME280;62512;-46.434;168.382;2022-08-02T01:15:21;100005;;;unknown;45.28
74161;BME280;62512;-46.434;168.382;2022-08-02T01:16:22;99991;;;unknown;45.21
74161;BME280;62512;-46.434;168.382;2022-08-02T01:17:23;100006;;;unknown;45.19
74161;BME280;62512;-46.434;168.382;2022-08-02T01:18:21;100010;;;unknown;45.54
74161;BME280;62512;-46.434;168.382;2022-08-02T01:19:26;100008;;;unknown;45.89
74161;BME280;62512;-46.434;168.382;2022-08-02T01:20:32;100008;;;unknown;45.89
74161;BME280;62512;-46.434;168.382;2022-08-02T01:21:28;100012;;;unknown;45.80
74161;BME280;62512;-46.434;168.382;2022-08-02T01:24:27;100011;;;unknown;45.84
74161;BME280;62512;-46.434;168.382;2022-08-02T01:25:27;100006;;;unknown;45.94
74161;BME280;62512;-46.434;168.382;2022-08-02T01:26:25;100005;;;unknown;46.01
74161;BME280;62512;-46.434;168.382;2022-08-02T01:27:24;99998;;;unknown;46.07
74161;BME280;62512;-46.434;168.382;2022-08-02T01:28:26;99994;;;unknown;46.05
74161;BME280;62512;-46.434;168.382;2022-08-02T01:29:21;100000;;;unknown;46.24
74161;BME280;62512;-46.434;168.382;2022-08-02T01:30:20;99998;;;unknown;46.11
74161;BME280;62512;-46.434;168.382;2022-08-02T01:31:22;99993;;;unknown;46.07
74161;BME280;62512;-46.434;168.382;2022-08-02T01:32:22;99992;;;unknown;46.17
74161;BME280;62512;-46.434;168.382;2022-08-02T01:33:20;99988;;;unknown;46.45
74161;BME280;62512;-46.434;168.382;2022-08-02T01:34:27;99988;;;unknown;46.45
74161;BME280;62512;-46.434;168.382;2022-08-02T01:35:22;100003;;;unknown;46.35
74161;BME280;62512;-46.434;168.382;2022-08-02T01:36:20;99995;;;unknown;46.07
74161;BME280;62512;-46.434;168.382;2022-08-02T01:37:21;99996;;;unknown;45.98
74161;BME280;62512;-46.434;168.382;2022-08-02T01:38:22;100006;;;unknown;45.96
74161;BME280;62512;-46.434;168.382;2022-08-02T01:39:22;99993;;;unknown;45.74
74161;BME280;62512;-46.434;168.382;2022-08-02T01:40:21;99991;;;unknown;45.90
74161;BME280;62512;-46.434;168.382;2022-08-02T01:41:21;99986;;;unknown;45.97
74161;BME280;62512;-46.434;168.382;2022-08-02T01:42:20;99979;;;unknown;45.96
74161;BME280;62512;-46.434;168.382;2022-08-02T01:43:20;99978;;;unknown;45.65
74161;BME280;62512;-46.434;168.382;2022-08-02T01:45:20;99987;;;unknown;46.09
74161;BME280;62512;-46.434;168.382;2022-08-02T01:46:20;99987;;;unknown;46.09
74161;BME280;62512;-46.434;168.382;2022-08-02T01:47:22;99993;;;unknown;45.85
74161;BME280;62512;-46.434;168.382;2022-08-02T01:48:20;99998;;;unknown;45.76
74161;BME280;62512;-46.434;168.382;2022-08-02T01:49:20;100012;;;unknown;45.87
74161;BME280;62512;-46.434;168.382;2022-08-02T01:50:22;100005;;;unknown;45.70
74161;BME280;62512;-46.434;168.382;2022-08-02T01:51:20;100010;;;unknown;45.81
74161;BME280;62512;-46.434;168.382;2022-08-02T01:54:21;100030;;;unknown;46.04
74161;BME280;62512;-46.434;168.382;2022-08-02T01:55:21;100014;;;unknown;45.85
74161;BME280;62512;-46.434;168.382;2022-08-02T01:57:20;100007;;;unknown;45.89
74161;BME280;62512;-46.434;168.382;2022-08-02T01:58:21;100004;;;unknown;46.03
74161;BME280;62512;-46.434;168.382;2022-08-02T01:59:20;100004;;;unknown;46.20
74161;BME280;62512;-46.434;168.382;2022-08-02T02:00:21;99994;;;unknown;46.33
74161;BME280;62512;-46.434;168.382;2022-08-02T02:01:20;99985;;;unknown;46.27
74161;BME280;62512;-46.434;168.382;2022-08-02T02:02:20;100000;;;unknown;46.38
74161;BME280;62512;-46.434;168.382;2022-08-02T02:04:20;100003;;;unknown;46.47
74161;BME280;62512;-46.434;168.382;2022-08-02T02:05:21;99991;;;unknown;46.42
74161;BME280;62512;-46.434;168.382;2022-08-02T02:06:20;99995;;;unknown;46.08
74161;BME280;62512;-46.434;168.382;2022-08-02T02:07:20;100017;;;unknown;46.40
74161;BME280;62512;-46.434;168.382;2022-08-02T02:08:22;100017;;;unknown;46.48
74161;BME280;62512;-46.434;168.382;2022-08-02T02:09:20;100014;;;unknown;46.62
74161;BME280;62512;-46.434;168.382;2022-08-02T02:10:21;100011;;;unknown;46.78
74161;BME280;62512;-46.434;168.382;2022-08-02T02:11:20;100009;;;unknown;46.89
74161;BME280;62512;-46.434;168.382;2022-08-02T02:12:20;100006;;;unknown;46.95
74161;BME280;62512;-46.434;168.382;2022-08-02T02:13:20;100009;;;unknown;46.79
74161;BME280;62512;-46.434;168.382;2022-08-02T02:14:20;100009;;;unknown;46.90
74161;BME280;62512;-46.434;168.382;2022-08-02T02:15:20;100002;;;unknown;47.09
74161;BME280;62512;-46.434;168.382;2022-08-02T02:16:20;99999;;;unknown;47.30
74161;BME280;62512;-46.434;168.382;2022-08-02T02:19:20;99993;;;unknown;47.83
74161;BME280;62512;-46.434;168.382;2022-08-02T02:20:20;99997;;;unknown;47.67
74161;BME280;62512;-46.434;168.382;2022-08-02T02:21:20;99997;;;unknown;47.59
74161;BME280;62512;-46.434;168.382;2022-08-02T02:22:20;99990;;;unknown;47.32
74161;BME280;62512;-46.434;168.382;2022-08-02T02:23:21;99987;;;unknown;47.25
74161;BME280;62512;-46.434;168.382;2022-08-02T02:24:20;99988;;;unknown;47.25
74161;BME280;62512;-46.434;168.382;2022-08-02T02:25:21;99986;;;unknown;47.26
74161;BME280;62512;-46.434;168.382;2022-08-02T02:26:20;99984;;;unknown;47.45
74161;BME280;62512;-46.434;168.382;2022-08-02T02:27:21;99979;;;unknown;47.54
74161;BME280;62512;-46.434;168.382;2022-08-02T02:28:21;99985;;;unknown;47.56
74161;BME280;62512;-46.434;168.382;2022-08-02T02:29:21;99987;;;unknown;47.46
74161;BME280;62512;-46.434;168.382;2022-08-02T02:31:20;99987;;;unknown;47.41
74161;BME280;62512;-46.434;168.382;2022-08-02T02:32:20;99982;;;unknown;47.40
74161;BME280;62512;-46.434;168.382;2022-08-02T02:33:20;99981;;;unknown;47.49
74161;BME280;62512;-46.434;168.382;2022-08-02T02:34:23;99981;;;unknown;47.49
74161;BME280;62512;-46.434;168.382;2022-08-02T02:35:20;99973;;;unknown;47.58
74161;BME280;62512;-46.434;168.382;2022-08-02T02:36:20;99968;;;unknown;47.48
74161;BME280;62512;-46.434;168.382;2022-08-02T02:37:21;99962;;;unknown;47.46
74161;BME280;62512;-46.434;168.382;2022-08-02T02:38:20;99962;;;unknown;47.46
74161;BME280;62512;-46.434;168.382;2022-08-02T02:39:21;99968;;;unknown;47.44
74161;BME280;62512;-46.434;168.382;2022-08-02T02:40:20;99963;;;unknown;47.54
74161;BME280;62512;-46.434;168.382;2022-08-02T02:42:21;99953;;;unknown;47.80
74161;BME280;62512;-46.434;168.382;2022-08-02T02:43:20;99958;;;unknown;47.71
74161;BME280;62512;-46.434;168.382;2022-08-02T02:45:20;99957;;;unknown;47.82
74161;BME280;62512;-46.434;168.382;2022-08-02T02:46:21;99961;;;unknown;47.68
74161;BME280;62512;-46.434;168.382;2022-08-02T02:47:20;99954;;;unknown;47.87
74161;BME280;62512;-46.434;168.382;2022-08-02T02:48:20;99962;;;unknown;47.93
74161;BME280;62512;-46.434;168.382;2022-08-02T02:50:20;99964;;;unknown;48.34
74161;BME280;62512;-46.434;168.382;2022-08-02T02:51:20;99957;;;unknown;48.34
74161;BME280;62512;-46.434;168.382;2022-08-02T02:52:20;99955;;;unknown;48.48
74161;BME280;62512;-46.434;168.382;2022-08-02T02:54:20;99957;;;unknown;48.12
74161;BME280;62512;-46.434;168.382;2022-08-02T02:55:20;99964;;;unknown;48.22
74161;BME280;62512;-46.434;168.382;2022-08-02T03:00:20;99949;;;unknown;48.26
74161;BME280;62512;-46.434;168.382;2022-08-02T03:01:20;99946;;;unknown;48.11
74161;BME280;62512;-46.434;168.382;2022-08-02T03:03:20;99966;;;unknown;48.41
74161;BME280;62512;-46.434;168.382;2022-08-02T03:04:20;99961;;;unknown;48.29
74161;BME280;62512;-46.434;168.382;2022-08-02T03:05:20;99970;;;unknown;48.35
74161;BME280;62512;-46.434;168.382;2022-08-02T03:06:20;99970;;;unknown;48.30
74161;BME280;62512;-46.434;168.382;2022-08-02T03:07:20;99967;;;unknown;48.27
74161;BME280;62512;-46.434;168.382;2022-08-02T03:09:20;99961;;;unknown;48.35
74161;BME280;62512;-46.434;168.382;2022-08-02T03:10:20;99961;;;unknown;48.35
74161;BME280;62512;-46.434;168.382;2022-08-02T03:11:20;99963;;;unknown;48.41
74161;BME280;62512;-46.434;168.382;2022-08-02T03:13:20;99952;;;unknown;48.61
74161;BME280;62512;-46.434;168.382;2022-08-02T03:14:20;99968;;;unknown;48.75
74161;BME280;62512;-46.434;168.382;2022-08-02T03:16:20;99976;;;unknown;48.94
74161;BME280;62512;-46.434;168.382;2022-08-02T03:17:20;99984;;;unknown;49.10
74161;BME280;62512;-46.434;168.382;2022-08-02T03:18:36;99983;;;unknown;49.28
74161;BME280;62512;-46.434;168.382;2022-08-02T03:19:21;99980;;;unknown;49.40
74161;BME280;62512;-46.434;168.382;2022-08-02T03:20:20;99986;;;unknown;49.50
74161;BME280;62512;-46.434;168.382;2022-08-02T03:21:20;99993;;;unknown;49.61
74161;BME280;62512;-46.434;168.382;2022-08-02T03:22:20;99979;;;unknown;49.69
74161;BME280;62512;-46.434;168.382;2022-08-02T03:23:20;99987;;;unknown;49.86
74161;BME280;62512;-46.434;168.382;2022-08-02T03:24:21;99985;;;unknown;50.14
74161;BME280;62512;-46.434;168.382;2022-08-02T03:25:20;99974;;;unknown;50.42
74161;BME280;62512;-46.434;168.382;2022-08-02T03:26:20;99989;;;unknown;50.52
74161;BME280;62512;-46.434;168.382;2022-08-02T03:27:20;99981;;;unknown;50.68
74161;BME280;62512;-46.434;168.382;2022-08-02T03:28:20;99974;;;unknown;50.66
74161;BME280;62512;-46.434;168.382;2022-08-02T03:29:20;99993;;;unknown;50.80
74161;BME280;62512;-46.434;168.382;2022-08-02T03:30:20;99975;;;unknown;50.94
74161;BME280;62512;-46.434;168.382;2022-08-02T03:31:20;99983;;;unknown;51.11
74161;BME280;62512;-46.434;168.382;2022-08-02T03:32:20;99985;;;unknown;51.38
74161;BME280;62512;-46.434;168.382;2022-08-02T03:33:20;99986;;;unknown;51.65
74161;BME280;62512;-46.434;168.382;2022-08-02T03:34:20;99984;;;unknown;51.80
74161;BME280;62512;-46.434;168.382;2022-08-02T03:35:20;99986;;;unknown;51.90
74161;BME280;62512;-46.434;168.382;2022-08-02T03:36:21;99986;;;unknown;51.99
74161;BME280;62512;-46.434;168.382;2022-08-02T03:38:21;99992;;;unknown;52.26
74161;BME280;62512;-46.434;168.382;2022-08-02T03:41:20;99979;;;unknown;52.59
74161;BME280;62512;-46.434;168.382;2022-08-02T03:42:20;99987;;;unknown;52.79
74161;BME280;62512;-46.434;168.382;2022-08-02T03:43:20;99987;;;unknown;52.79
74161;BME280;62512;-46.434;168.382;2022-08-02T03:44:20;99986;;;unknown;52.78
74161;BME280;62512;-46.434;168.382;2022-08-02T03:45:20;99978;;;unknown;52.96
74161;BME280;62512;-46.434;168.382;2022-08-02T03:46:21;99969;;;unknown;52.99
74161;BME280;62512;-46.434;168.382;2022-08-02T03:47:20;99975;;;unknown;53.05
74161;BME280;62512;-46.434;168.382;2022-08-02T03:48:20;99974;;;unknown;53.09
74161;BME280;62512;-46.434;168.382;2022-08-02T03:49:20;99970;;;unknown;53.20
74161;BME280;62512;-46.434;168.382;2022-08-02T03:50:20;99977;;;unknown;53.27
74161;BME280;62512;-46.434;168.382;2022-08-02T03:51:20;99977;;;unknown;53.44
74161;BME280;62512;-46.434;168.382;2022-08-02T03:52:21;99983;;;unknown;53.60
74161;BME280;62512;-46.434;168.382;2022-08-02T03:53:20;99987;;;unknown;53.78
74161;BME280;62512;-46.434;168.382;2022-08-02T03:54:20;99981;;;unknown;53.85
74161;BME280;62512;-46.434;168.382;2022-08-02T03:55:20;99985;;;unknown;53.95
74161;BME280;62512;-46.434;168.382;2022-08-02T03:56:20;99992;;;unknown;54.13
74161;BME280;62512;-46.434;168.382;2022-08-02T03:58:21;99996;;;unknown;54.25
74161;BME280;62512;-46.434;168.382;2022-08-02T03:59:20;99996;;;unknown;54.33
74161;BME280;62512;-46.434;168.382;2022-08-02T04:00:21;99998;;;unknown;54.48
74161;BME280;62512;-46.434;168.382;2022-08-02T04:01:20;100008;;;unknown;54.56
74161;BME280;62512;-46.434;168.382;2022-08-02T04:02:20;100001;;;unknown;54.63
74161;BME280;62512;-46.434;168.382;2022-08-02T04:03:20;100004;;;unknown;54.86
74161;BME280;62512;-46.434;168.382;2022-08-02T04:04:20;100011;;;unknown;54.93
74161;BME280;62512;-46.434;168.382;2022-08-02T04:05:20;100016;;;unknown;55.20
74161;BME280;62512;-46.434;168.382;2022-08-02T04:06:20;100015;;;unknown;55.28
74161;BME280;62512;-46.434;168.382;2022-08-02T04:07:20;100009;;;unknown;55.43
74161;BME280;62512;-46.434;168.382;2022-08-02T04:08:20;100003;;;unknown;55.52
74161;BME280;62512;-46.434;168.382;2022-08-02T04:09:20;100005;;;unknown;55.66
74161;BME280;62512;-46.434;168.382;2022-08-02T04:10:20;100006;;;unknown;55.81
74161;BME280;62512;-46.434;168.382;2022-08-02T04:11:20;100014;;;unknown;55.97
74161;BME280;62512;-46.434;168.382;2022-08-02T04:12:20;100014;;;unknown;56.10
74161;BME280;62512;-46.434;168.382;2022-08-02T04:13:20;100019;;;unknown;56.25
74161;BME280;62512;-46.434;168.382;2022-08-02T04:14:20;100022;;;unknown;56.41
74161;BME280;62512;-46.434;168.382;2022-08-02T04:15:20;100029;;;unknown;56.51
74161;BME280;62512;-46.434;168.382;2022-08-02T04:16:21;100033;;;unknown;56.50
74161;BME280;62512;-46.434;168.382;2022-08-02T04:17:20;100030;;;unknown;56.49
74161;BME280;62512;-46.434;168.382;2022-08-02T04:18:21;100030;;;unknown;56.74
74161;BME280;62512;-46.434;168.382;2022-08-02T04:19:23;100030;;;unknown;56.74
74161;BME280;62512;-46.434;168.382;2022-08-02T04:20:21;100034;;;unknown;56.82
74161;BME280;62512;-46.434;168.382;2022-08-02T04:21:21;100038;;;unknown;57.05
74161;BME280;62512;-46.434;168.382;2022-08-02T04:22:22;100038;;;unknown;57.05
74161;BME280;62512;-46.434;168.382;2022-08-02T04:23:20;100035;;;unknown;57.20
74161;BME280;62512;-46.434;168.382;2022-08-02T04:24:21;100028;;;unknown;57.36
74161;BME280;62512;-46.434;168.382;2022-08-02T04:25:20;100031;;;unknown;57.50
74161;BME280;62512;-46.434;168.382;2022-08-02T04:26:20;100042;;;unknown;57.63
74161;BME280;62512;-46.434;168.382;2022-08-02T04:27:20;100038;;;unknown;57.67
74161;BME280;62512;-46.434;168.382;2022-08-02T04:28:20;100046;;;unknown;57.71
74161;BME280;62512;-46.434;168.382;2022-08-02T04:29:20;100035;;;unknown;57.78
74161;BME280;62512;-46.434;168.382;2022-08-02T04:30:20;100037;;;unknown;57.82
74161;BME280;62512;-46.434;168.382;2022-08-02T04:31:20;100036;;;unknown;57.81
74161;BME280;62512;-46.434;168.382;2022-08-02T04:32:20;100031;;;unknown;57.93
74161;BME280;62512;-46.434;168.382;2022-08-02T04:33:20;100029;;;unknown;58.06
74161;BME280;62512;-46.434;168.382;2022-08-02T04:34:20;100037;;;unknown;58.20
74161;BME280;62512;-46.434;168.382;2022-08-02T04:35:21;100023;;;unknown;58.17
74161;BME280;62512;-46.434;168.382;2022-08-02T04:36:20;100026;;;unknown;58.31
74161;BME280;62512;-46.434;168.382;2022-08-02T04:37:20;100027;;;unknown;58.28
74161;BME280;62512;-46.434;168.382;2022-08-02T04:38:20;100024;;;unknown;58.31
74161;BME280;62512;-46.434;168.382;2022-08-02T04:39:20;100021;;;unknown;58.35
74161;BME280;62512;-46.434;168.382;2022-08-02T04:42:20;100005;;;unknown;58.52
74161;BME280;62512;-46.434;168.382;2022-08-02T04:45:20;100006;;;unknown;58.64
74161;BME280;62512;-46.434;168.382;2022-08-02T04:46:20;99999;;;unknown;58.73
74161;BME280;62512;-46.434;168.382;2022-08-02T04:47:20;99985;;;unknown;58.91
74161;BME280;62512;-46.434;168.382;2022-08-02T04:48:20;99991;;;unknown;58.92
74161;BME280;62512;-46.434;168.382;2022-08-02T04:49:20;99992;;;unknown;59.00
74161;BME280;62512;-46.434;168.382;2022-08-02T04:50:20;99995;;;unknown;59.05
74161;BME280;62512;-46.434;168.382;2022-08-02T04:51:20;99998;;;unknown;59.11
74161;BME280;62512;-46.434;168.382;2022-08-02T04:52:20;99998;;;unknown;59.20
74161;BME280;62512;-46.434;168.382;2022-08-02T04:53:20;99985;;;unknown;59.25
74161;BME280;62512;-46.434;168.382;2022-08-02T04:54:20;100003;;;unknown;59.49
74161;BME280;62512;-46.434;168.382;2022-08-02T04:55:20;100003;;;unknown;59.49
74161;BME280;62512;-46.434;168.382;2022-08-02T04:56:20;100011;;;unknown;59.68
74161;BME280;62512;-46.434;168.382;2022-08-02T04:57:20;100009;;;unknown;59.72
74161;BME280;62512;-46.434;168.382;2022-08-02T04:58:20;100002;;;unknown;59.81
74161;BME280;62512;-46.434;168.382;2022-08-02T04:59:20;100001;;;unknown;59.86
74161;BME280;62512;-46.434;168.382;2022-08-02T05:00:20;100001;;;unknown;59.89
74161;BME280;62512;-46.434;168.382;2022-08-02T05:01:20;100006;;;unknown;60.00
74161;BME280;62512;-46.434;168.382;2022-08-02T05:02:20;100006;;;unknown;60.00
74161;BME280;62512;-46.434;168.382;2022-08-02T05:03:20;99995;;;unknown;59.93
74161;BME280;62512;-46.434;168.382;2022-08-02T05:04:20;99987;;;unknown;60.09
74161;BME280;62512;-46.434;168.382;2022-08-02T05:06:20;99990;;;unknown;60.06
74161;BME280;62512;-46.434;168.382;2022-08-02T05:07:20;99996;;;unknown;60.07
74161;BME280;62512;-46.434;168.382;2022-08-02T05:08:20;99997;;;unknown;60.08
74161;BME280;62512;-46.434;168.382;2022-08-02T05:09:20;99993;;;unknown;60.12
74161;BME280;62512;-46.434;168.382;2022-08-02T05:10:21;99988;;;unknown;60.21
74161;BME280;62512;-46.434;168.382;2022-08-02T05:11:20;99982;;;unknown;60.23
74161;BME280;62512;-46.434;168.382;2022-08-02T05:12:20;99981;;;unknown;60.28
74161;BME280;62512;-46.434;168.382;2022-08-02T05:15:20;100001;;;unknown;60.36
74161;BME280;62512;-46.434;168.382;2022-08-02T05:17:20;99972;;;unknown;60.75
74161;BME280;62512;-46.434;168.382;2022-08-02T05:19:20;99986;;;unknown;60.50
74161;BME280;62512;-46.434;168.382;2022-08-02T05:21:20;99986;;;unknown;60.55
74161;BME280;62512;-46.434;168.382;2022-08-02T05:22:20;99987;;;unknown;60.67
74161;BME280;62512;-46.434;168.382;2022-08-02T05:23:20;99985;;;unknown;60.76
74161;BME280;62512;-46.434;168.382;2022-08-02T05:24:20;99985;;;unknown;60.76
74161;BME280;62512;-46.434;168.382;2022-08-02T05:25:20;99977;;;unknown;60.86
74161;BME280;62512;-46.434;168.382;2022-08-02T05:26:20;99976;;;unknown;60.86
74161;BME280;62512;-46.434;168.382;2022-08-02T05:27:20;99976;;;unknown;60.88
74161;BME280;62512;-46.434;168.382;2022-08-02T05:28:20;99972;;;unknown;60.97
74161;BME280;62512;-46.434;168.382;2022-08-02T05:30:20;99976;;;unknown;61.12
74161;BME280;62512;-46.434;168.382;2022-08-02T05:31:20;99978;;;unknown;61.11
74161;BME280;62512;-46.434;168.382;2022-08-02T05:32:20;99974;;;unknown;61.19
74161;BME280;62512;-46.434;168.382;2022-08-02T05:34:20;99976;;;unknown;61.32
74161;BME280;62512;-46.434;168.382;2022-08-02T05:35:21;99969;;;unknown;61.48
74161;BME280;62512;-46.434;168.382;2022-08-02T05:36:20;99964;;;unknown;61.60
74161;BME280;62512;-46.434;168.382;2022-08-02T05:38:20;99965;;;unknown;61.89
74161;BME280;62512;-46.434;168.382;2022-08-02T05:39:20;99963;;;unknown;62.06
74161;BME280;62512;-46.434;168.382;2022-08-02T05:40:20;99960;;;unknown;62.03
74161;BME280;62512;-46.434;168.382;2022-08-02T05:41:20;99957;;;unknown;62.27
74161;BME280;62512;-46.434;168.382;2022-08-02T05:42:20;99968;;;unknown;62.29
74161;BME280;62512;-46.434;168.382;2022-08-02T05:43:20;99966;;;unknown;62.50
74161;BME280;62512;-46.434;168.382;2022-08-02T05:44:20;99968;;;unknown;62.59
74161;BME280;62512;-46.434;168.382;2022-08-02T05:45:20;99975;;;unknown;62.66
74161;BME280;62512;-46.434;168.382;2022-08-02T05:46:20;99974;;;unknown;62.95
74161;BME280;62512;-46.434;168.382;2022-08-02T05:47:20;99973;;;unknown;63.11
74161;BME280;62512;-46.434;168.382;2022-08-02T05:48:20;99978;;;unknown;63.08
74161;BME280;62512;-46.434;168.382;2022-08-02T05:49:20;99988;;;unknown;63.29
74161;BME280;62512;-46.434;168.382;2022-08-02T05:50:20;99989;;;unknown;63.22
74161;BME280;62512;-46.434;168.382;2022-08-02T05:51:21;99986;;;unknown;63.29
74161;BME280;62512;-46.434;168.382;2022-08-02T05:52:21;99986;;;unknown;63.36
74161;BME280;62512;-46.434;168.382;2022-08-02T05:53:23;99991;;;unknown;63.47
74161;BME280;62512;-46.434;168.382;2022-08-02T05:54:22;99988;;;unknown;63.54
74161;BME280;62512;-46.434;168.382;2022-08-02T05:55:21;99985;;;unknown;63.58
74161;BME280;62512;-46.434;168.382;2022-08-02T05:56:21;99986;;;unknown;63.60
74161;BME280;62512;-46.434;168.382;2022-08-02T05:58:23;99982;;;unknown;63.52
74161;BME280;62512;-46.434;168.382;2022-08-02T06:00:20;99988;;;unknown;63.71
74161;BME280;62512;-46.434;168.382;2022-08-02T06:01:24;99991;;;unknown;63.86
74161;BME280;62512;-46.434;168.382;2022-08-02T06:02:23;99995;;;unknown;63.88